Time;durP1;ratioP1;P1;durP2;ratioP2;P2;SDS_P1;SDS_P2;PMS_P1;PMS_P2;Temp;Humidity;BMP_temperature;BMP_pressure;BME280_temperature;BME280_humidity;BME280_pressure;Samples;Min_cycle;Max_cycle;Signal;HPM_P1;HPM_P2
2023/09/29 00:01:35;;;;;;;20.00;4.68;;;;;;;;;;4883389;29;20048;-76
2023/09/29 00:04:04;;;;;;;19.50;5.15;;;15.90;99.90;;;;;;4883629;29;20040;-77
2023/09/29 00:06:32;;;;;;;13.18;4.55;;;;;;;;;;4883428;29;20084;-77
2023/09/29 00:08:59;;;;;;;17.05;4.90;;;16.00;99.90;;;;;;4883372;29;20108;-77
2023/09/29 00:11:26;;;;;;;19.40;4.70;;;17.10;99.90;;;;;;4883239;29;20080;-76
2023/09/29 00:13:52;;;;;;;13.07;4.20;;;;;;;;;;4883547;29;20048;-77
2023/09/29 00:16:18;;;;;;;20.98;5.43;;;;;;;;;;4867520;29;20036;-77
2023/09/29 00:18:44;;;;;;;18.85;5.38;;;;;;;;;;4867801;29;20409;-77
2023/09/29 00:21:11;;;;;;;16.25;5.47;;;;;;;;;;4882437;29;20048;-77
2023/09/29 00:23:37;;;;;;;20.45;4.80;;;;;;;;;;4882819;29;20120;-77
2023/09/29 00:26:03;;;;;;;21.77;5.60;;;;;;;;;;4883020;29;20489;-77
2023/09/29 00:28:29;;;;;;;17.65;4.50;;;;;;;;;;4883395;29;20044;-77
2023/09/29 00:30:55;;;;;;;19.95;5.32;;;;;;;;;;4883053;29;20080;-77
2023/09/29 00:33:21;;;;;;;22.60;4.80;;;15.10;99.90;;;;;;4883030;29;20163;-77
2023/09/29 00:35:47;;;;;;;15.05;4.53;;;;;;;;;;4882731;29;20131;-77
2023/09/29 00:38:13;;;;;;;14.75;4.70;;;;;;;;;;4867263;29;20044;-77
2023/09/29 00:40:39;;;;;;;17.27;4.47;;;;;;;;;;4882773;29;20371;-76
2023/09/29 00:43:06;;;;;;;14.90;4.32;;;17.00;99.90;;;;;;4882969;29;20055;-77
2023/09/29 00:45:33;;;;;;;14.00;4.60;;;;;;;;;;4882765;29;20163;-77
2023/09/29 00:48:10;;;;;;;22.38;5.13;;;16.30;99.90;;;;;;4882670;29;20059;-77
2023/09/29 00:50:38;;;;;;;17.70;4.53;;;16.10;99.90;;;;;;4882528;29;20056;-77
2023/09/29 00:53:09;;;;;;;20.05;4.93;;;16.20;99.90;;;;;;4882510;29;20114;-77
2023/09/29 00:55:36;;;;;;;18.75;4.55;;;16.20;99.90;;;;;;4882900;29;20457;-77
2023/09/29 00:58:04;;;;;;;19.48;5.43;;;;;;;;;;4899217;29;20489;-76
2023/09/29 01:00:31;;;;;;;22.02;5.10;;;;;;;;;;4882618;29;20044;-77
2023/09/29 01:02:58;;;;;;;21.35;5.13;;;;;;;;;;4882393;29;20051;-76
2023/09/29 01:05:24;;;;;;;17.67;5.22;;;17.20;99.90;;;;;;4882270;29;20048;-77
2023/09/29 01:07:51;;;;;;;17.25;4.82;;;16.80;99.90;;;;;;4882514;29;20572;-76
2023/09/29 01:10:20;;;;;;;18.80;4.55;;;;;;;;;;4882479;29;20060;-76
2023/09/29 01:12:46;;;;;;;16.50;4.63;;;;;;;;;;4867004;29;20417;-77
2023/09/29 01:15:19;;;;;;;18.05;5.63;;;;;;;;;;4866771;29;20048;-76
2023/09/29 01:17:46;;;;;;;28.13;5.22;;;17.10;99.90;;;;;;4881821;29;20049;-76
2023/09/29 01:20:28;;;;;;;16.45;4.57;;;15.60;99.90;;;;;;4884993;29;20068;-76
2023/09/29 01:22:56;;;;;;;14.95;4.47;;;17.10;99.90;;;;;;4883706;29;20044;-70
2023/09/29 01:25:22;;;;;;;15.00;4.80;;;;;;;;;;4890614;29;20040;-70
2023/09/29 01:27:48;;;;;;;17.42;4.88;;;16.60;99.90;;;;;;4868459;29;20445;-70
2023/09/29 01:30:16;;;;;;;15.73;5.00;;;;;;;;;;4892442;29;20056;-70
2023/09/29 01:32:43;;;;;;;16.60;5.00;;;16.00;99.90;;;;;;4889298;29;20051;-70
2023/09/29 01:35:15;;;;;;;20.10;5.63;;;14.70;99.90;;;;;;4882622;29;20127;-69
2023/09/29 01:37:42;;;;;;;19.38;5.00;;;;;;;;;;4896575;29;20096;-70
2023/09/29 01:40:09;;;;;;;15.68;4.00;;;14.90;99.90;;;;;;4892137;29;20125;-69
2023/09/29 01:42:35;;;;;;;13.93;4.22;;;15.90;99.90;;;;;;4870680;29;20448;-71
2023/09/29 01:45:08;;;;;;;17.65;5.03;;;;;;;;;;4881605;29;20525;-70
2023/09/29 01:47:37;;;;;;;12.65;4.20;;;16.00;99.90;;;;;;4881934;29;20056;-70
2023/09/29 01:50:03;;;;;;;14.48;4.05;;;16.90;99.90;;;;;;4881567;29;20068;-70
2023/09/29 01:52:28;;;;;;;12.50;4.20;;;17.00;99.90;;;;;;4881837;29;20155;-70
2023/09/29 01:54:58;;;;;;;14.93;4.20;;;16.40;99.90;;;;;;4881373;29;20044;-69
2023/09/29 01:57:24;;;;;;;17.17;4.38;;;14.90;99.90;;;;;;4865714;29;20044;-70
2023/09/29 01:59:50;;;;;;;17.33;4.43;;;17.10;99.90;;;;;;4881639;29;20367;-70
2023/09/29 02:02:16;;;;;;;18.60;4.80;;;;;;;;;;4881651;29;20433;-70
2023/09/29 02:04:42;;;;;;;19.42;4.50;;;;;;;;;;4881363;29;20036;-70
2023/09/29 02:07:09;;;;;;;19.38;4.75;;;17.10;99.90;;;;;;4881686;29;20049;-70
2023/09/29 02:09:36;;;;;;;19.52;4.82;;;;;;;;;;4881559;29;20055;-70
2023/09/29 02:12:02;;;;;;;20.45;4.25;;;;;;;;;;4881051;29;20064;-70
2023/09/29 02:14:29;;;;;;;18.92;4.78;;;;;;;;;;4865814;29;20485;-70
2023/09/29 02:16:55;;;;;;;16.90;4.45;;;;;;;;;;4881080;29;20084;-70
2023/09/29 02:19:21;;;;;;;15.85;5.22;;;17.10;99.90;;;;;;4865672;29;20112;-70
2023/09/29 02:21:47;;;;;;;17.95;5.03;;;;;;;;;;4881095;29;20493;-70
2023/09/29 02:24:13;;;;;;;16.30;4.90;;;;;;;;;;4881270;29;20041;-70
2023/09/29 02:26:40;;;;;;;20.90;4.68;;;;;;;;;;4881027;29;20053;-70
2023/09/29 02:29:08;;;;;;;12.82;4.38;;;;;;;;;;4881333;29;20514;-70
2023/09/29 02:31:36;;;;;;;18.40;4.30;;;;;;;;;;4881049;29;20108;-70
2023/09/29 02:34:02;;;;;;;18.58;4.65;;;;;;;;;;4881186;29;20398;-70
2023/09/29 02:36:28;;;;;;;15.00;4.63;;;15.20;99.90;;;;;;4880953;29;20108;-70
2023/09/29 02:38:54;;;;;;;17.05;4.80;;;16.40;99.90;;;;;;4897888;29;20032;-71
2023/09/29 02:41:20;;;;;;;16.02;4.90;;;17.20;99.90;;;;;;4880982;29;20104;-71
2023/09/29 02:43:46;;;;;;;18.25;4.45;;;16.10;99.90;;;;;;4881086;29;20173;-71
2023/09/29 02:46:15;;;;;;;20.10;4.28;;;16.00;99.90;;;;;;4883799;29;20096;-69
2023/09/29 02:48:42;;;;;;;15.38;4.10;;;;;;;;;;4884846;29;20048;-70
2023/09/29 02:51:18;;;;;;;15.68;4.80;;;16.40;99.90;;;;;;4884689;29;20485;-71
2023/09/29 02:53:44;;;;;;;12.15;3.97;;;16.00;99.90;;;;;;4884840;29;20049;-70
2023/09/29 02:56:11;;;;;;;17.30;4.30;;;;;;;;;;4901434;29;20504;-70
2023/09/29 02:58:41;;;;;;;14.27;4.32;;;17.10;99.90;;;;;;4884702;29;20121;-70
2023/09/29 03:01:12;;;;;;;17.35;4.22;;;15.90;99.90;;;;;;4884605;29;20497;-70
2023/09/29 03:03:43;;;;;;;15.50;4.43;;;16.80;99.90;;;;;;4884534;29;20115;-70
2023/09/29 03:06:16;;;;;;;17.83;4.10;;;16.70;99.90;;;;;;4884639;29;20052;-71
2023/09/29 03:08:42;;;;;;;15.80;3.33;;;16.30;99.90;;;;;;4884449;29;20052;-70
2023/09/29 03:11:09;;;;;;;16.25;3.88;;;;;;;;;;4884655;29;20444;-77
2023/09/29 03:13:40;;;;;;;15.80;3.60;;;15.30;99.90;;;;;;4868864;29;20044;-76
2023/09/29 03:16:07;;;;;;;12.93;3.67;;;16.20;99.90;;;;;;4884050;29;20059;-77
2023/09/29 03:18:37;;;;;;;16.85;4.63;;;17.20;99.90;;;;;;4883973;29;20057;-76
2023/09/29 03:21:04;;;;;;;19.27;3.95;;;;;;;;;;4884162;29;20437;-76
2023/09/29 03:23:34;;;;;;;14.05;3.97;;;16.20;99.90;;;;;;4884512;29;20044;-78
2023/09/29 03:26:00;;;;;;;17.40;3.97;;;;;;;;;;4884240;29;20561;-76
2023/09/29 03:28:26;;;;;;;19.38;3.80;;;;;;;;;;4884095;29;20386;-77
2023/09/29 03:30:52;;;;;;;18.38;3.95;;;;;;;;;;4884412;29;20127;-77
2023/09/29 03:33:18;;;;;;;17.63;3.63;;;;;;;;;;4883980;29;20572;-77
2023/09/29 03:35:47;;;;;;;20.88;4.15;;;;;;;;;;4883994;29;20040;-77
2023/09/29 03:38:14;;;;;;;15.15;3.47;;;;;;;;;;4883924;29;20059;-76
2023/09/29 03:40:46;;;;;;;14.50;3.47;;;15.20;99.90;;;;;;4883943;29;20052;-77
2023/09/29 03:43:12;;;;;;;18.42;3.65;;;;;;;;;;4899612;29;20442;-76
2023/09/29 03:45:38;;;;;;;14.50;4.90;;;17.20;99.90;;;;;;4883813;29;20076;-76
2023/09/29 03:48:05;;;;;;;21.88;4.07;;;;;;;;;;4883840;29;20183;-76
2023/09/29 03:50:31;;;;;;;12.45;3.53;;;;;;;;;;4883704;29;20518;-75
2023/09/29 03:52:57;;;;;;;14.57;4.22;;;;;;;;;;4883936;29;20044;-76
2023/09/29 03:55:23;;;;;;;17.20;4.13;;;;;;;;;;4868001;29;20474;-76
2023/09/29 03:57:49;;;;;;;15.52;3.67;;;17.20;99.90;;;;;;4883420;29;20051;-77
2023/09/29 04:00:18;;;;;;;14.05;4.50;;;15.40;99.90;;;;;;4883389;29;20076;-77
2023/09/29 04:02:43;;;;;;;16.48;4.05;;;16.00;99.90;;;;;;4883660;29;20374;-77
2023/09/29 04:05:10;;;;;;;16.83;3.67;;;;;;;;;;4883500;29;20060;-76
2023/09/29 04:07:38;;;;;;;17.90;3.75;;;16.30;99.90;;;;;;4883673;29;20486;-76
2023/09/29 04:10:04;;;;;;;18.00;3.90;;;15.60;99.90;;;;;;4883536;29;20143;-77
2023/09/29 04:12:30;;;;;;;13.63;3.92;;;;;;;;;;4883242;29;20060;-76
2023/09/29 04:14:57;;;;;;;16.20;3.97;;;;;;;;;;4883205;29;20104;-76
2023/09/29 04:17:23;;;;;;;17.83;3.65;;;;;;;;;;4882928;29;20051;-76
2023/09/29 04:19:49;;;;;;;17.38;3.65;;;;;;;;;;4882987;29;20063;-76
2023/09/29 04:22:14;;;;;;;15.18;4.00;;;15.40;99.90;;;;;;4883282;29;20048;-77
2023/09/29 04:24:42;;;;;;;13.05;3.63;;;;;;;;;;4883091;29;20488;-76
2023/09/29 04:27:08;;;;;;;15.60;3.88;;;;;;;;;;4883077;29;20048;-77
2023/09/29 04:29:35;;;;;;;16.33;4.07;;;17.40;99.90;;;;;;4883123;29;20049;-77
2023/09/29 04:32:01;;;;;;;18.88;3.95;;;;;;;;;;4883201;29;20095;-76
2023/09/29 04:34:27;;;;;;;18.27;4.07;;;;;;;;;;4882953;29;20052;-77
2023/09/29 04:36:53;;;;;;;18.80;3.60;;;;;;;;;;4899583;29;20140;-76
2023/09/29 04:39:19;;;;;;;13.48;3.30;;;15.30;99.90;;;;;;4882718;29;20040;-76
2023/09/29 04:41:45;;;;;;;14.13;4.25;;;;;;;;;;4867281;29;20100;-77
2023/09/29 04:44:11;;;;;;;16.90;4.05;;;;;;;;;;4886956;29;20080;-76
2023/09/29 04:46:39;;;;;;;17.40;4.28;;;;;;;;;;4869550;29;20138;-76
2023/09/29 04:49:05;;;;;;;12.68;3.45;;;;;;;;;;4890313;29;20108;-76
2023/09/29 04:51:36;;;;;;;14.70;3.80;;;15.40;99.90;;;;;;4887417;29;20408;-75
2023/09/29 04:54:02;;;;;;;11.27;4.43;;;;;;;;;;4886425;29;20051;-76
2023/09/29 04:56:28;;;;;;;13.45;3.20;;;17.00;99.90;;;;;;4885354;29;20048;-76
2023/09/29 04:58:54;;;;;;;15.85;4.15;;;16.70;99.90;;;;;;4883574;29;20230;-76
2023/09/29 05:01:20;;;;;;;13.85;4.13;;;16.50;99.90;;;;;;4883335;29;20045;-76
2023/09/29 05:03:47;;;;;;;11.73;3.45;;;;;;;;;;4884399;29;20043;-76
2023/09/29 05:06:16;;;;;;;16.92;4.40;;;16.90;99.90;;;;;;4867542;29;20392;-76
2023/09/29 05:08:41;;;;;;;14.85;4.20;;;15.30;99.90;;;;;;4881620;29;20382;-77
2023/09/29 05:11:07;;;;;;;12.95;3.90;;;16.30;99.90;;;;;;4866840;29;20052;-77
2023/09/29 05:13:34;;;;;;;12.32;4.18;;;;;;;;;;4882420;29;20048;-77
2023/09/29 05:16:00;;;;;;;17.00;3.80;;;;;;;;;;4866616;29;20055;-76
2023/09/29 05:18:26;;;;;;;13.18;3.75;;;15.60;99.90;;;;;;4866752;29;20135;-76
2023/09/29 05:20:52;;;;;;;14.23;4.07;;;16.80;99.90;;;;;;4881959;29;20521;-76
2023/09/29 05:23:19;;;;;;;12.20;4.38;;;;;;;;;;4881954;29;20052;-76
2023/09/29 05:25:47;;;;;;;18.50;4.50;;;16.20;99.90;;;;;;4898867;29;20048;-77
2023/09/29 05:28:14;;;;;;;14.85;4.05;;;;;;;;;;4866777;29;20044;-76
2023/09/29 05:30:53;;;;;;;20.65;4.20;;;16.60;99.90;;;;;;4882188;29;20119;-76
2023/09/29 05:33:19;;;;;;;13.30;4.15;;;17.30;99.90;;;;;;4866396;29;20041;-76
2023/09/29 05:35:46;;;;;;;12.45;4.00;;;;;;;;;;4881755;29;20184;-76
2023/09/29 05:38:12;;;;;;;18.25;4.30;;;;;;;;;;4881542;29;20053;-76
2023/09/29 05:40:38;;;;;;;16.80;4.65;;;;;;;;;;4882034;29;20048;-76
2023/09/29 05:43:09;;;;;;;14.60;4.25;;;17.10;99.90;;;;;;4882082;29;20040;-77
2023/09/29 05:45:38;;;;;;;16.08;4.40;;;15.60;99.90;;;;;;4881884;29;20063;-76
2023/09/29 05:48:06;;;;;;;19.85;4.57;;;15.80;99.90;;;;;;4881521;29;20053;-76
2023/09/29 05:50:32;;;;;;;15.00;4.45;;;;;;;;;;4866175;29;20049;-76
2023/09/29 05:52:58;;;;;;;12.60;4.03;;;;;;;;;;4881748;29;20151;-76
2023/09/29 05:55:25;;;;;;;14.02;4.00;;;;;;;;;;4881628;29;20084;-77
2023/09/29 05:57:51;;;;;;;14.43;4.22;;;16.40;99.90;;;;;;4881280;29;20048;-77
2023/09/29 06:00:18;;;;;;;9.30;3.78;;;17.10;99.90;;;;;;4881488;29;20043;-77
2023/09/29 06:02:44;;;;;;;18.65;3.95;;;;;;;;;;4881566;29;20438;-77
2023/09/29 06:05:11;;;;;;;13.45;3.90;;;16.60;99.90;;;;;;4881438;29;20044;-77
2023/09/29 06:07:37;;;;;;;14.50;4.53;;;;;;;;;;4881605;29;20116;-77
2023/09/29 06:10:04;;;;;;;18.20;4.50;;;17.50;99.90;;;;;;4866160;29;20111;-77
2023/09/29 06:12:30;;;;;;;13.88;4.20;;;;;;;;;;4881346;29;20092;-76
2023/09/29 06:14:56;;;;;;;12.43;4.28;;;17.00;99.90;;;;;;4881299;29;20095;-76
2023/09/29 06:17:22;;;;;;;13.65;3.97;;;16.40;99.90;;;;;;4881042;29;20045;-78
2023/09/29 06:19:49;;;;;;;12.63;4.40;;;;;;;;;;4881028;29;20068;-77
2023/09/29 06:22:15;;;;;;;13.68;4.10;;;16.20;99.90;;;;;;4865640;29;20119;-77
2023/09/29 06:24:44;;;;;;;13.98;4.57;;;;;;;;;;4881162;29;20036;-77
2023/09/29 06:27:11;;;;;;;14.38;4.50;;;;;;;;;;4881385;29;20517;-77
2023/09/29 06:29:39;;;;;;;17.98;5.10;;;;;;;;;;4881506;29;20080;-77
2023/09/29 06:32:05;;;;;;;24.85;5.97;;;;;;;;;;4865763;29;20048;-76
2023/09/29 06:34:31;;;;;;;16.00;5.03;;;16.80;99.90;;;;;;4881299;29;20044;-76
2023/09/29 06:36:57;;;;;;;10.68;4.20;;;;;;;;;;4881042;29;20087;-75
2023/09/29 06:39:23;;;;;;;13.13;4.53;;;15.80;99.90;;;;;;4865733;29;20088;-76
2023/09/29 06:41:49;;;;;;;17.35;5.00;;;17.60;99.90;;;;;;4881421;29;20079;-77
2023/09/29 06:44:15;;;;;;;12.07;4.40;;;;;;;;;;4881329;29;20536;-77
2023/09/29 06:46:41;;;;;;;9.95;4.45;;;;;;;;;;4881439;29;20040;-77
2023/09/29 06:49:08;;;;;;;15.38;4.97;;;;;;;;;;4881272;29;20535;-76
2023/09/29 06:51:34;;;;;;;11.07;4.20;;;;;;;;;;4897815;29;20048;-76
2023/09/29 06:54:01;;;;;;;13.18;4.07;;;;;;;;;;4881263;29;20040;-76
2023/09/29 06:56:26;;;;;;;18.13;4.47;;;17.70;99.90;;;;;;4881299;29;20049;-76
2023/09/29 06:58:54;;;;;;;14.48;4.70;;;15.50;99.90;;;;;;4880952;29;20504;-76
2023/09/29 07:01:20;;;;;;;14.60;4.40;;;17.70;99.90;;;;;;4865322;29;20079;-77
2023/09/29 07:03:47;;;;;;;13.40;4.00;;;;;;;;;;4881119;29;20398;-77
2023/09/29 07:06:13;;;;;;;15.35;3.92;;;;;;;;;;4865728;29;20116;-76
2023/09/29 07:08:40;;;;;;;14.77;4.28;;;;;;;;;;4880789;29;20045;-76
2023/09/29 07:11:06;;;;;;;16.08;4.20;;;;;;;;;;4880988;29;20045;-76
2023/09/29 07:13:32;;;;;;;12.32;4.72;;;;;;;;;;4880872;29;20076;-77
2023/09/29 07:15:58;;;;;;;15.73;5.47;;;17.70;99.90;;;;;;4865079;29;20076;-76
2023/09/29 07:18:24;;;;;;;11.82;4.50;;;;;;;;;;4880614;29;20118;-77
2023/09/29 07:20:52;;;;;;;9.32;3.85;;;;;;;;;;4880795;29;20534;-75
2023/09/29 07:23:21;;;;;;;17.58;4.68;;;15.90;99.90;;;;;;4880753;29;20048;-77
2023/09/29 07:25:48;;;;;;;14.65;5.25;;;;;;;;;;4897415;29;20076;-76
2023/09/29 07:28:19;;;;;;;15.30;4.82;;;17.10;99.90;;;;;;4880633;29;20104;-76
2023/09/29 07:30:45;;;;;;;11.35;3.90;;;17.30;99.90;;;;;;4881101;29;20064;-76
2023/09/29 07:33:11;;;;;;;10.90;3.75;;;17.30;99.90;;;;;;4884009;29;20044;-76
2023/09/29 07:35:38;;;;;;;12.20;4.10;;;;;;;;;;4884130;29;20049;-77
2023/09/29 07:38:04;;;;;;;12.10;4.13;;;;;;;;;;4883983;29;20187;-77
2023/09/29 07:40:36;;;;;;;9.43;3.88;;;17.70;99.90;;;;;;4883820;29;20500;-77
2023/09/29 07:43:03;;;;;;;10.25;4.22;;;;;;;;;;4883809;29;20177;-77
2023/09/29 07:45:28;;;;;;;11.52;4.07;;;18.10;99.90;;;;;;4868263;29;20037;-77
2023/09/29 07:47:54;;;;;;;12.55;3.85;;;18.30;99.90;;;;;;4883822;29;20406;-77
2023/09/29 07:50:20;;;;;;;10.90;4.20;;;;;;;;;;4883728;29;20053;-77
2023/09/29 07:52:46;;;;;;;8.18;4.13;;;;;;;;;;4883951;29;20059;-77
2023/09/29 07:55:13;;;;;;;7.97;4.07;;;;;;;;;;4883810;29;20045;-77
2023/09/29 07:57:39;;;;;;;12.63;4.32;;;18.20;99.90;;;;;;4868057;29;20051;-77
2023/09/29 08:00:05;;;;;;;17.95;4.45;;;17.30;99.90;;;;;;4883784;29;20119;-77
2023/09/29 08:02:31;;;;;;;10.35;4.40;;;18.50;99.90;;;;;;4883513;29;20073;-77
2023/09/29 08:04:57;;;;;;;10.82;4.22;;;16.60;99.90;;;;;;4883506;29;20509;-77
2023/09/29 08:07:24;;;;;;;8.68;4.40;;;;;;;;;;4883874;29;20048;-77
2023/09/29 08:09:52;;;;;;;11.88;4.32;;;;;;;;;;4883650;29;20525;-77
2023/09/29 08:12:18;;;;;;;10.20;3.92;;;;;;;;;;4883793;29;20403;-77
2023/09/29 08:14:45;;;;;;;14.00;4.25;;;;;;;;;;4883898;29;20056;-70
2023/09/29 08:17:11;;;;;;;8.00;3.85;;;;;;;;;;4891071;29;20068;-69
2023/09/29 08:19:39;;;;;;;13.23;4.05;;;;;;;;;;4895623;29;20179;-70
2023/09/29 08:22:05;;;;;;;11.40;4.10;;;;;;;;;;4894956;29;20041;-69
2023/09/29 08:24:32;;;;;;;8.85;4.07;;;17.60;99.90;;;;;;4891926;29;20059;-71
2023/09/29 08:27:00;;;;;;;8.13;3.67;;;17.00;99.90;;;;;;4884849;29;20044;-71
2023/09/29 08:29:26;;;;;;;10.80;3.80;;;;;;;;;;4884793;29;20044;-70
2023/09/29 08:31:54;;;;;;;8.95;3.50;;;;;;;;;;4885782;29;20053;-71
2023/09/29 08:34:19;;;;;;;10.80;4.00;;;17.80;99.90;;;;;;4884126;29;20045;-71
2023/09/29 08:36:45;;;;;;;10.68;3.83;;;17.40;99.90;;;;;;4883231;29;20508;-70
2023/09/29 08:39:11;;;;;;;9.18;4.05;;;19.10;99.90;;;;;;4882917;29;20048;-71
2023/09/29 08:42:04;;;;;;;9.80;4.03;;;18.30;99.90;;;;;;4899869;29;20104;-70
2023/09/29 08:44:32;;;;;;;15.68;4.03;;;18.90;99.90;;;;;;4877772;29;20048;-71
2023/09/29 08:47:04;;;;;;;9.35;3.50;;;18.40;99.90;;;;;;4882771;29;20055;-71
2023/09/29 08:49:30;;;;;;;10.90;4.30;;;18.20;99.90;;;;;;4882607;29;20048;-71
2023/09/29 08:52:00;;;;;;;10.07;3.80;;;17.50;99.90;;;;;;4882816;29;20292;-70
2023/09/29 08:54:28;;;;;;;7.97;3.25;;;18.30;99.90;;;;;;4882904;29;20041;-71
2023/09/29 08:56:56;;;;;;;8.27;3.75;;;18.50;99.90;;;;;;4882717;29;20112;-71
2023/09/29 08:59:22;;;;;;;7.20;3.60;;;19.10;99.90;;;;;;4882728;29;20048;-71
2023/09/29 09:01:49;;;;;;;8.65;3.40;;;19.20;99.90;;;;;;4882576;29;20054;-71
2023/09/29 09:04:14;;;;;;;12.55;3.80;;;17.60;99.90;;;;;;4882382;29;20049;-71
2023/09/29 09:06:41;;;;;;;11.40;4.03;;;;;;;;;;4882538;29;20052;-71
2023/09/29 09:09:08;;;;;;;10.25;3.65;;;19.60;99.90;;;;;;4882435;29;20055;-77
2023/09/29 09:11:42;;;;;;;11.70;3.92;;;18.40;99.90;;;;;;4882435;29;20048;-77
2023/09/29 09:14:10;;;;;;;11.02;3.60;;;17.70;99.90;;;;;;4882636;29;20128;-77
2023/09/29 09:16:38;;;;;;;9.40;3.85;;;;;;;;;;4882174;29;20104;-77
2023/09/29 09:19:13;;;;;;;13.45;4.10;;;18.00;99.90;;;;;;4866706;29;20119;-77
2023/09/29 09:21:42;;;;;;;8.75;3.60;;;19.70;99.90;;;;;;4866671;29;20044;-78
2023/09/29 09:24:22;;;;;;;8.75;3.75;;;18.60;99.90;;;;;;4882200;29;20357;-77
2023/09/29 09:26:48;;;;;;;11.68;3.85;;;19.10;99.90;;;;;;4882599;29;20100;-78
2023/09/29 09:29:18;;;;;;;12.07;4.55;;;;;;;;;;4867151;29;20049;-78
2023/09/29 09:31:52;;;;;;;6.07;3.58;;;19.80;99.90;;;;;;4882212;29;20532;-77
2023/09/29 09:34:18;;;;;;;9.45;4.50;;;20.10;99.90;;;;;;4882080;29;20096;-77
2023/09/29 09:36:53;;;;;;;9.45;3.90;;;19.80;99.90;;;;;;4881843;29;20052;-76
2023/09/29 09:39:23;;;;;;;10.43;3.83;;;;;;;;;;4881899;29;20045;-77
2023/09/29 09:41:53;;;;;;;9.02;3.47;;;19.20;99.90;;;;;;4881906;29;20493;-77
2023/09/29 09:44:22;;;;;;;11.63;4.10;;;20.00;99.90;;;;;;4882112;29;20127;-77
2023/09/29 09:46:53;;;;;;;7.55;3.70;;;18.50;99.90;;;;;;4882194;29;20493;-77
2023/09/29 09:49:24;;;;;;;9.10;3.80;;;18.30;99.90;;;;;;4881948;29;20489;-78
2023/09/29 09:51:52;;;;;;;13.25;4.53;;;20.20;99.90;;;;;;4881761;29;20123;-77
2023/09/29 09:54:26;;;;;;;8.18;4.07;;;18.80;99.90;;;;;;4881458;29;20056;-77
2023/09/29 09:57:08;;;;;;;8.65;4.10;;;18.20;99.90;;;;;;4881648;29;20049;-77
2023/09/29 09:59:35;;;;;;;10.90;4.38;;;19.00;99.90;;;;;;4881799;29;20150;-77
2023/09/29 10:02:07;;;;;;;7.03;4.10;;;19.20;99.90;;;;;;4881562;29;20096;-77
2023/09/29 10:04:38;;;;;;;10.13;4.10;;;19.10;99.90;;;;;;4881451;29;20040;-77
2023/09/29 10:07:05;;;;;;;13.35;4.13;;;19.40;99.90;;;;;;4881420;29;20063;-77
2023/09/29 10:10:00;;;;;;;10.73;4.28;;;20.00;99.90;;;;;;4881447;29;20489;-77
2023/09/29 10:12:31;;;;;;;11.38;4.32;;;17.40;99.90;;;;;;4881150;29;20072;-77
2023/09/29 10:14:58;;;;;;;11.60;4.63;;;18.40;99.90;;;;;;4881832;29;20048;-77
2023/09/29 10:17:37;;;;;;;11.25;4.15;;;19.40;99.90;;;;;;4881466;29;20059;-77
2023/09/29 10:20:04;;;;;;;8.77;3.75;;;18.80;99.90;;;;;;4881186;29;20394;-77
2023/09/29 10:22:31;;;;;;;9.93;4.50;;;;;;;;;;4881460;29;20040;-78
2023/09/29 10:24:57;;;;;;;9.05;3.92;;;19.60;99.90;;;;;;4881400;29;20055;-71
2023/09/29 10:27:33;;;;;;;15.35;4.45;;;20.30;99.90;;;;;;4881112;29;20057;-70
2023/09/29 10:30:16;;;;;;;11.45;4.32;;;19.10;99.90;;;;;;4865833;29;20052;-70
2023/09/29 10:32:43;;;;;;;11.68;4.25;;;20.60;99.90;;;;;;4881216;29;20085;-71
2023/09/29 10:35:18;;;;;;;16.52;4.60;;;18.80;99.90;;;;;;4881180;29;20047;-70
2023/09/29 10:37:47;;;;;;;13.90;4.15;;;20.30;99.90;;;;;;4881274;29;20056;-70
2023/09/29 10:40:21;;;;;;;13.32;4.03;;;19.70;99.90;;;;;;4881113;29;20049;-70
2023/09/29 10:42:48;;;;;;;12.60;4.30;;;19.20;99.90;;;;;;4865766;29;20124;-70
2023/09/29 10:45:31;;;;;;;9.43;3.92;;;19.10;99.90;;;;;;4881188;29;20059;-70
2023/09/29 10:48:07;;;;;;;8.65;4.13;;;19.80;99.90;;;;;;4881144;29;20044;-70
2023/09/29 10:50:40;;;;;;;13.85;4.53;;;19.80;99.90;;;;;;4881228;29;20203;-70
2023/09/29 10:53:07;;;;;;;11.82;4.90;;;18.80;99.90;;;;;;4881067;29;20144;-71
2023/09/29 10:55:44;;;;;;;12.32;4.95;;;19.90;99.90;;;;;;4881576;29;20052;-69
2023/09/29 10:58:14;;;;;;;13.30;5.00;;;20.10;99.90;;;;;;4880800;29;20045;-70
2023/09/29 11:00:51;;;;;;;17.05;5.45;;;20.40;99.90;;;;;;4880899;29;20037;-70
2023/09/29 11:03:24;;;;;;;7.60;2.53;;;19.80;99.90;;;;;;4880765;29;20053;-71
2023/09/29 11:05:54;;;;;;;3.58;1.90;;;20.40;99.90;;;;;;4881657;29;20041;-70
2023/09/29 11:08:33;;;;;;;5.38;1.80;;;19.40;99.90;;;;;;4884704;29;20563;-70
2023/09/29 11:11:03;;;;;;;2.85;1.88;;;19.10;99.90;;;;;;4884579;29;20052;-70
2023/09/29 11:13:30;;;;;;;3.88;1.73;;;20.00;99.90;;;;;;4884353;29;20100;-69
2023/09/29 11:15:58;;;;;;;4.72;1.63;;;19.10;99.90;;;;;;4868967;29;20053;-70
2023/09/29 11:18:35;;;;;;;5.90;1.80;;;17.90;99.90;;;;;;4884100;29;20064;-70
2023/09/29 11:21:08;;;;;;;4.30;1.75;;;19.20;99.90;;;;;;4884270;29;20041;-69
2023/09/29 11:23:43;;;;;;;4.60;1.80;;;18.60;99.90;;;;;;4884942;29;20112;-76
2023/09/29 11:26:10;;;;;;;7.15;1.88;;;19.60;99.90;;;;;;4884305;29;20057;-77
2023/09/29 11:28:43;;;;;;;6.25;1.80;;;18.50;99.90;;;;;;4884793;29;20136;-77
2023/09/29 11:31:11;;;;;;;7.10;1.75;;;19.00;99.90;;;;;;4884779;29;20056;-78
2023/09/29 11:33:37;;;;;;;9.48;1.95;;;;;;;;;;4884526;29;20055;-77
2023/09/29 11:36:23;;;;;;;4.40;1.60;;;17.20;99.90;;;;;;4884606;29;20494;-77
2023/09/29 11:38:53;;;;;;;12.65;2.28;;;18.70;99.90;;;;;;4890162;29;20044;-76
2023/09/29 11:41:20;;;;;;;5.78;2.20;;;17.10;99.90;;;;;;4893608;29;20080;-68
2023/09/29 11:43:46;;;;;;;7.63;2.20;;;16.90;99.90;;;;;;4893856;29;20109;-70
2023/09/29 11:46:15;;;;;;;6.50;2.08;;;17.30;99.90;;;;;;4894413;29;20037;-69
2023/09/29 11:48:42;;;;;;;4.82;1.98;;;18.10;99.90;;;;;;4893730;29;20041;-69
2023/09/29 11:51:09;;;;;;;5.25;1.70;;;17.00;99.90;;;;;;4888550;29;20100;-68
2023/09/29 11:53:43;;;;;;;9.10;2.40;;;17.90;99.90;;;;;;4883869;29;20076;-68
2023/09/29 11:56:10;;;;;;;9.65;2.03;;;;;;;;;;4883630;29;20091;-67
2023/09/29 11:58:37;;;;;;;6.47;1.98;;;18.00;99.90;;;;;;4883930;29;20080;-69
2023/09/29 12:01:03;;;;;;;5.15;1.45;;;16.70;99.90;;;;;;4883588;29;20055;-69
2023/09/29 12:03:29;;;;;;;6.40;1.60;;;;;;;;;;4883399;29;20533;-68
2023/09/29 12:05:58;;;;;;;3.55;1.30;;;17.00;99.90;;;;;;4900420;29;20040;-68
2023/09/29 12:08:23;;;;;;;4.38;1.15;;;16.60;99.90;;;;;;4883389;29;20048;-68
2023/09/29 12:10:49;;;;;;;5.43;1.52;;;;;;;;;;4883389;29;20044;-69
2023/09/29 12:13:15;;;;;;;4.25;1.30;;;17.90;99.90;;;;;;4883687;29;20040;-68
2023/09/29 12:15:45;;;;;;;3.95;1.20;;;18.00;99.90;;;;;;4883162;29;20048;-69
2023/09/29 12:18:11;;;;;;;6.78;1.52;;;17.70;99.90;;;;;;4882999;29;20529;-68
2023/09/29 12:20:38;;;;;;;6.15;1.42;;;18.30;99.90;;;;;;4868179;29;20045;-68
2023/09/29 12:23:06;;;;;;;8.02;1.70;;;17.00;99.90;;;;;;4883504;29;20399;-68
2023/09/29 12:25:32;;;;;;;5.97;1.42;;;18.10;99.90;;;;;;4883393;29;20048;-68
2023/09/29 12:27:59;;;;;;;8.90;1.30;;;18.40;99.90;;;;;;4883127;29;20040;-70
2023/09/29 12:30:25;;;;;;;4.78;1.00;;;18.20;99.90;;;;;;4883346;29;20124;-69
2023/09/29 12:32:51;;;;;;;7.07;1.20;;;18.40;99.90;;;;;;4882829;29;20052;-69
2023/09/29 12:35:17;;;;;;;4.43;1.35;;;16.30;99.90;;;;;;4883268;29;20131;-68
2023/09/29 12:37:44;;;;;;;4.85;1.30;;;18.40;99.90;;;;;;4882888;29;20564;-68
2023/09/29 12:40:11;;;;;;;5.43;1.45;;;17.50;99.90;;;;;;4882920;29;20452;-69
2023/09/29 12:42:49;;;;;;;6.72;1.80;;;18.40;99.90;;;;;;4882754;29;20056;-68
2023/09/29 12:45:21;;;;;;;8.80;2.08;;;18.20;99.90;;;;;;4882731;29;20053;-69
2023/09/29 12:47:48;;;;;;;5.70;1.50;;;18.50;99.90;;;;;;4882529;29;20454;-68
2023/09/29 12:50:14;;;;;;;6.65;1.65;;;17.70;99.90;;;;;;4882641;29;20053;-68
2023/09/29 12:52:40;;;;;;;6.85;1.50;;;18.40;99.90;;;;;;4882539;29;20434;-69
2023/09/29 12:55:08;;;;;;;5.03;1.33;;;17.60;99.90;;;;;;4867217;29;20576;-69
2023/09/29 12:57:33;;;;;;;7.30;1.80;;;18.50;99.90;;;;;;4882608;29;20051;-69
2023/09/29 13:00:00;;;;;;;6.13;1.50;;;;;;;;;;4882410;29;20120;-69
2023/09/29 13:02:27;;;;;;;5.68;1.50;;;18.80;99.90;;;;;;4882529;29;20568;-68
2023/09/29 13:04:53;;;;;;;10.88;2.22;;;18.90;99.90;;;;;;4882638;29;20041;-68
2023/09/29 13:07:19;;;;;;;4.95;1.60;;;18.80;99.90;;;;;;4882422;29;20049;-68
2023/09/29 13:09:45;;;;;;;7.45;1.90;;;18.40;99.90;;;;;;4882667;29;20415;-68
2023/09/29 13:12:11;;;;;;;8.50;1.90;;;18.00;99.90;;;;;;4866765;29;20049;-68
2023/09/29 13:14:37;;;;;;;6.03;1.60;;;17.90;99.90;;;;;;4882444;29;20084;-69
2023/09/29 13:17:04;;;;;;;5.32;1.70;;;;;;;;;;4866554;29;20155;-70
2023/09/29 13:19:30;;;;;;;7.60;1.90;;;17.90;99.90;;;;;;4881980;29;20505;-69
2023/09/29 13:21:56;;;;;;;6.50;1.95;;;17.30;99.90;;;;;;4866700;29;20205;-68
2023/09/29 13:24:22;;;;;;;5.30;1.70;;;18.20;99.90;;;;;;4882366;29;20092;-68